createdAt,value
2017-05-22T00:00:02.128Z,76.36
2017-05-22T00:10:02.472Z,78.3
2017-05-22T00:20:02.202Z,79.79
2017-05-22T00:30:02.663Z,80.45
2017-05-22T00:40:02.675Z,82.35
2017-05-22T00:50:02.678Z,82.6
2017-05-22T01:00:02.109Z,82.27
2017-05-22T01:10:02.838Z,82.67
2017-05-22T01:20:02.084Z,82.67
2017-05-22T01:30:02.511Z,83.82
2017-05-22T01:40:02.925Z,84.59
2017-05-22T01:50:02.526Z,85.24
2017-05-22T02:00:03.036Z,86.22
2017-05-22T02:10:02.705Z,86.47
2017-05-22T02:20:02.182Z,87.07
2017-05-22T02:30:02.639Z,87.74
2017-05-22T02:40:02.084Z,87.7
2017-05-22T02:50:02.775Z,87.28
2017-05-22T03:00:02.231Z,87.01
2017-05-22T03:10:02.654Z,86.85
2017-05-22T03:20:02.340Z,88.16
2017-05-22T03:30:02.825Z,86.91
2017-05-22T03:40:02.293Z,88.46
2017-05-22T03:50:02.200Z,86.78
2017-05-22T04:00:02.680Z,88.69
2017-05-22T04:10:02.570Z,88.05
2017-05-22T04:20:02.399Z,88.75
2017-05-22T04:30:02.654Z,88.75
2017-05-22T04:40:02.231Z,88.62
2017-05-22T04:50:02.075Z,88.65
2017-05-22T05:00:02.175Z,89.49
2017-05-22T05:10:02.577Z,88.86
2017-05-22T05:20:02.835Z,90.12
2017-05-22T05:30:02.121Z,88.64
2017-05-22T05:40:02.220Z,89.3
2017-05-22T05:50:02.507Z,88.49
2017-05-22T06:00:02.614Z,89.48
2017-05-22T06:10:02.684Z,89.63
2017-05-22T06:20:02.312Z,89.26
2017-05-22T06:30:02.394Z,89.5
2017-05-22T06:40:02.518Z,87.68
2017-05-22T06:50:02.184Z,86.43
2017-05-22T07:00:02.272Z,85.66
2017-05-22T07:10:02.394Z,81.41
2017-05-22T07:20:02.944Z,76.1
2017-05-22T07:30:02.034Z,71.04
2017-05-22T07:40:02.136Z,68.76
2017-05-22T07:50:02.868Z,66.62
2017-05-22T08:00:02.971Z,62.82
2017-05-22T08:10:02.079Z,58.24
2017-05-22T08:20:02.092Z,56.74
2017-05-22T08:30:02.179Z,54.66
2017-05-22T08:40:02.295Z,53.26
2017-05-22T08:50:02.694Z,51.85
2017-05-22T09:00:02.829Z,49.79
2017-05-22T09:10:02.911Z,51.96
2017-05-22T09:20:02.722Z,52.08
2017-05-22T09:30:02.780Z,50.68
2017-05-22T09:40:02.891Z,47.87
2017-05-22T09:50:02.514Z,47.74
2017-05-22T10:00:02.633Z,48.14
2017-05-22T10:10:02.708Z,47.81
2017-05-22T10:20:02.962Z,45.78
2017-05-22T10:30:02.073Z,45.22
2017-05-22T10:40:02.156Z,47.07
2017-05-22T10:50:02.145Z,46.52
2017-05-22T11:00:02.306Z,49.7
2017-05-22T11:10:02.382Z,51.19
2017-05-22T11:20:02.109Z,53.23
2017-05-22T11:30:02.198Z,54.79
2017-05-22T11:40:02.280Z,53.6
2017-05-22T11:50:02.583Z,51.52
2017-05-22T12:00:02.694Z,49.97
2017-05-22T12:10:02.796Z,51.32
2017-05-22T12:20:02.169Z,51.67
2017-05-22T12:30:02.229Z,50.79
2017-05-22T12:40:02.350Z,48.65
2017-05-22T12:50:02.064Z,49.07
2017-05-22T13:00:02.169Z,50.65
2017-05-22T13:10:02.244Z,48.57
2017-05-22T13:20:02.575Z,52.51
2017-05-22T13:30:02.726Z,51.42
2017-05-22T13:40:02.759Z,51.23
2017-05-22T13:50:02.364Z,52.04
2017-05-22T14:00:02.477Z,53.29
2017-05-22T14:10:02.539Z,50.01
2017-05-22T14:20:02.764Z,51.28
2017-05-22T14:30:02.853Z,49.91
2017-05-22T14:40:02.985Z,50.06
2017-05-22T14:50:02.565Z,50.51
2017-05-22T15:00:02.704Z,50.24
2017-05-22T15:10:02.790Z,50.12
2017-05-22T15:20:02.837Z,49.26
2017-05-22T15:30:02.902Z,48.78
2017-05-22T15:40:03.051Z,49.85
2017-05-22T15:50:02.240Z,46.57
2017-05-22T16:00:02.357Z,49.12
2017-05-22T16:10:02.417Z,49.42
2017-05-22T16:20:02.656Z,49.77
2017-05-22T16:30:02.750Z,50.51
2017-05-22T16:40:03.121Z,49.68
2017-05-22T16:50:02.995Z,51.25
2017-05-22T17:00:02.100Z,51.4
2017-05-22T17:10:02.175Z,52.03
2017-05-22T17:20:03.002Z,52.95
2017-05-22T17:30:02.086Z,52.93
2017-05-22T17:40:02.226Z,53.7
2017-05-22T17:50:02.451Z,54.62
2017-05-22T18:00:02.551Z,55.71
2017-05-22T18:10:02.061Z,56.93
2017-05-22T18:20:02.246Z,57.92
2017-05-22T18:30:02.692Z,59.56
2017-05-22T18:40:02.253Z,60.88
2017-05-22T18:50:02.938Z,62.06
2017-05-22T19:00:02.497Z,63.54
2017-05-22T19:10:02.418Z,64.05
2017-05-22T19:20:02.160Z,65.23
2017-05-22T19:30:02.663Z,66.22
2017-05-22T19:40:02.154Z,67.06
2017-05-22T19:50:02.594Z,68.41
2017-05-22T20:00:02.079Z,69.04
2017-05-22T20:10:02.232Z,69.66
2017-05-22T20:20:02.476Z,71.17
2017-05-22T20:30:02.945Z,72.17
2017-05-22T20:40:02.439Z,73.23
2017-05-22T20:50:02.221Z,73.46
2017-05-22T21:00:02.731Z,74.27
2017-05-22T21:10:02.771Z,74.17
2017-05-22T21:20:02.554Z,74.39
2017-05-22T21:30:03.004Z,75.17
2017-05-22T21:40:02.428Z,75.73
2017-05-22T21:50:02.060Z,75.86
2017-05-22T22:00:02.562Z,74.19
2017-05-22T22:10:02.313Z,74.3
2017-05-22T22:20:02.219Z,74.71
2017-05-22T22:30:02.691Z,74.27
2017-05-22T22:40:02.481Z,74.55
2017-05-22T22:50:02.408Z,74.55
2017-05-22T23:00:02.848Z,75.41
2017-05-22T23:10:02.571Z,75.46
2017-05-22T23:20:02.507Z,74.97
2017-05-22T23:30:02.953Z,76.45
2017-05-22T23:40:02.816Z,75.93
2017-05-22T23:50:02.783Z,76.23
